sensor_id;sensor_type;location;lat;lon;timestamp;P1;durP1;ratioP1;P2;durP2;ratioP2
37753;SDS011;23596;52.520;13.464;2023-01-26T00:03:19;58.70;;;18.77;;
37753;SDS011;23596;52.520;13.464;2023-01-26T00:05:45;57.60;;;18.75;;
37753;SDS011;23596;52.520;13.464;2023-01-26T00:08:11;60.03;;;18.83;;
37753;SDS011;23596;52.520;13.464;2023-01-26T00:10:38;62.63;;;19.38;;
37753;SDS011;23596;52.520;13.464;2023-01-26T00:13:05;54.15;;;18.38;;
37753;SDS011;23596;52.520;13.464;2023-01-26T00:15:31;70.93;;;21.52;;
37753;SDS011;23596;52.520;13.464;2023-01-26T00:17:58;64.70;;;19.27;;
37753;SDS011;23596;52.520;13.464;2023-01-26T00:20:25;61.42;;;20.70;;
37753;SDS011;23596;52.520;13.464;2023-01-26T00:22:50;59.13;;;19.77;;
37753;SDS011;23596;52.520;13.464;2023-01-26T00:25:16;56.20;;;20.07;;
37753;SDS011;23596;52.520;13.464;2023-01-26T00:27:42;74.53;;;22.60;;
37753;SDS011;23596;52.520;13.464;2023-01-26T00:30:07;68.53;;;21.20;;
37753;SDS011;23596;52.520;13.464;2023-01-26T00:32:34;64.90;;;20.90;;
37753;SDS011;23596;52.520;13.464;2023-01-26T00:35:00;69.32;;;24.30;;
37753;SDS011;23596;52.520;13.464;2023-01-26T00:37:26;69.45;;;21.25;;
37753;SDS011;23596;52.520;13.464;2023-01-26T00:39:51;67.20;;;23.87;;
37753;SDS011;23596;52.520;13.464;2023-01-26T00:42:17;64.13;;;22.17;;
37753;SDS011;23596;52.520;13.464;2023-01-26T00:44:43;68.20;;;23.07;;
37753;SDS011;23596;52.520;13.464;2023-01-26T00:47:09;74.57;;;24.07;;
37753;SDS011;23596;52.520;13.464;2023-01-26T00:49:36;70.82;;;22.60;;
37753;SDS011;23596;52.520;13.464;2023-01-26T00:52:02;69.50;;;22.77;;
37753;SDS011;23596;52.520;13.464;2023-01-26T00:54:28;68.05;;;23.60;;
37753;SDS011;23596;52.520;13.464;2023-01-26T00:56:54;73.40;;;24.27;;
37753;SDS011;23596;52.520;13.464;2023-01-26T00:59:20;75.60;;;25.53;;
37753;SDS011;23596;52.520;13.464;2023-01-26T01:01:46;65.85;;;21.63;;
37753;SDS011;23596;52.520;13.464;2023-01-26T01:04:13;68.40;;;22.80;;
37753;SDS011;23596;52.520;13.464;2023-01-26T01:06:39;67.15;;;23.05;;
37753;SDS011;23596;52.520;13.464;2023-01-26T01:09:05;59.57;;;21.97;;
37753;SDS011;23596;52.520;13.464;2023-01-26T01:11:30;63.93;;;22.73;;
37753;SDS011;23596;52.520;13.464;2023-01-26T01:13:56;64.13;;;23.03;;
37753;SDS011;23596;52.520;13.464;2023-01-26T01:16:21;64.97;;;22.03;;
37753;SDS011;23596;52.520;13.464;2023-01-26T01:18:48;58.67;;;21.88;;
37753;SDS011;23596;52.520;13.464;2023-01-26T01:21:18;60.53;;;21.38;;
37753;SDS011;23596;52.520;13.464;2023-01-26T01:23:44;58.20;;;19.88;;
37753;SDS011;23596;52.520;13.464;2023-01-26T01:26:10;63.10;;;20.60;;
37753;SDS011;23596;52.520;13.464;2023-01-26T01:28:36;60.28;;;20.42;;
37753;SDS011;23596;52.520;13.464;2023-01-26T01:31:03;66.40;;;22.27;;
37753;SDS011;23596;52.520;13.464;2023-01-26T01:33:29;62.88;;;22.75;;
37753;SDS011;23596;52.520;13.464;2023-01-26T01:35:56;64.00;;;22.30;;
37753;SDS011;23596;52.520;13.464;2023-01-26T01:38:23;63.20;;;22.33;;
37753;SDS011;23596;52.520;13.464;2023-01-26T01:40:49;78.22;;;22.15;;
37753;SDS011;23596;52.520;13.464;2023-01-26T01:43:14;70.80;;;22.83;;
37753;SDS011;23596;52.520;13.464;2023-01-26T01:45:44;63.17;;;21.10;;
37753;SDS011;23596;52.520;13.464;2023-01-26T01:48:15;61.45;;;21.92;;
37753;SDS011;23596;52.520;13.464;2023-01-26T01:50:42;65.25;;;22.40;;
37753;SDS011;23596;52.520;13.464;2023-01-26T01:53:09;60.23;;;21.57;;
37753;SDS011;23596;52.520;13.464;2023-01-26T01:55:38;65.40;;;23.40;;
37753;SDS011;23596;52.520;13.464;2023-01-26T01:58:04;67.45;;;22.50;;
37753;SDS011;23596;52.520;13.464;2023-01-26T02:00:32;54.67;;;20.02;;
37753;SDS011;23596;52.520;13.464;2023-01-26T02:03:02;67.40;;;23.80;;
37753;SDS011;23596;52.520;13.464;2023-01-26T02:05:46;55.67;;;20.33;;
37753;SDS011;23596;52.520;13.464;2023-01-26T02:09:04;61.80;;;20.15;;
37753;SDS011;23596;52.520;13.464;2023-01-26T02:11:26;53.25;;;20.25;;
37753;SDS011;23596;52.520;13.464;2023-01-26T02:13:57;57.60;;;20.50;;
37753;SDS011;23596;52.520;13.464;2023-01-26T02:16:26;58.08;;;20.23;;
37753;SDS011;23596;52.520;13.464;2023-01-26T02:18:52;59.37;;;19.50;;
37753;SDS011;23596;52.520;13.464;2023-01-26T02:21:19;58.65;;;19.90;;
37753;SDS011;23596;52.520;13.464;2023-01-26T02:26:26;60.00;;;19.65;;
37753;SDS011;23596;52.520;13.464;2023-01-26T02:28:53;67.45;;;20.55;;
37753;SDS011;23596;52.520;13.464;2023-01-26T02:31:19;57.75;;;21.38;;
37753;SDS011;23596;52.520;13.464;2023-01-26T02:33:47;64.47;;;22.08;;
37753;SDS011;23596;52.520;13.464;2023-01-26T02:36:32;69.43;;;20.40;;
37753;SDS011;23596;52.520;13.464;2023-01-26T02:42:07;62.63;;;20.35;;
37753;SDS011;23596;52.520;13.464;2023-01-26T02:44:51;64.10;;;20.40;;
37753;SDS011;23596;52.520;13.464;2023-01-26T02:47:18;72.85;;;22.75;;
37753;SDS011;23596;52.520;13.464;2023-01-26T02:49:43;63.72;;;22.65;;
37753;SDS011;23596;52.520;13.464;2023-01-26T02:52:16;61.17;;;20.42;;
37753;SDS011;23596;52.520;13.464;2023-01-26T02:54:46;69.75;;;23.02;;
37753;SDS011;23596;52.520;13.464;2023-01-26T02:57:31;64.97;;;20.35;;
37753;SDS011;23596;52.520;13.464;2023-01-26T02:59:59;75.53;;;24.08;;
37753;SDS011;23596;52.520;13.464;2023-01-26T03:02:24;76.40;;;23.40;;
37753;SDS011;23596;52.520;13.464;2023-01-26T03:04:50;66.83;;;22.20;;
37753;SDS011;23596;52.520;13.464;2023-01-26T03:07:16;67.30;;;21.53;;
37753;SDS011;23596;52.520;13.464;2023-01-26T03:09:41;72.20;;;23.30;;
37753;SDS011;23596;52.520;13.464;2023-01-26T03:12:07;70.37;;;23.47;;
37753;SDS011;23596;52.520;13.464;2023-01-26T03:14:33;68.87;;;22.50;;
37753;SDS011;23596;52.520;13.464;2023-01-26T03:16:58;71.93;;;20.37;;
37753;SDS011;23596;52.520;13.464;2023-01-26T03:19:24;79.70;;;23.77;;
37753;SDS011;23596;52.520;13.464;2023-01-26T03:22:09;71.25;;;21.20;;
37753;SDS011;23596;52.520;13.464;2023-01-26T03:24:54;66.35;;;21.83;;
37753;SDS011;23596;52.520;13.464;2023-01-26T03:27:42;70.15;;;22.02;;
37753;SDS011;23596;52.520;13.464;2023-01-26T03:30:10;80.95;;;22.92;;
37753;SDS011;23596;52.520;13.464;2023-01-26T03:32:36;70.00;;;22.60;;
37753;SDS011;23596;52.520;13.464;2023-01-26T03:35:02;70.53;;;22.48;;
37753;SDS011;23596;52.520;13.464;2023-01-26T03:37:28;78.22;;;25.02;;
37753;SDS011;23596;52.520;13.464;2023-01-26T03:39:58;77.07;;;24.20;;
37753;SDS011;23596;52.520;13.464;2023-01-26T03:42:42;91.30;;;24.83;;
37753;SDS011;23596;52.520;13.464;2023-01-26T03:45:26;78.80;;;23.92;;
37753;SDS011;23596;52.520;13.464;2023-01-26T03:48:11;76.30;;;21.58;;
37753;SDS011;23596;52.520;13.464;2023-01-26T03:50:55;75.13;;;22.13;;
37753;SDS011;23596;52.520;13.464;2023-01-26T03:53:40;77.03;;;23.80;;
37753;SDS011;23596;52.520;13.464;2023-01-26T03:56:25;69.55;;;21.55;;
37753;SDS011;23596;52.520;13.464;2023-01-26T03:58:57;84.88;;;24.15;;
37753;SDS011;23596;52.520;13.464;2023-01-26T04:01:40;69.68;;;22.30;;
37753;SDS011;23596;52.520;13.464;2023-01-26T04:04:26;76.38;;;22.83;;
37753;SDS011;23596;52.520;13.464;2023-01-26T04:07:10;83.38;;;24.70;;
37753;SDS011;23596;52.520;13.464;2023-01-26T04:09:54;79.00;;;23.33;;
37753;SDS011;23596;52.520;13.464;2023-01-26T04:12:20;76.97;;;22.43;;
37753;SDS011;23596;52.520;13.464;2023-01-26T04:14:45;89.10;;;24.93;;
37753;SDS011;23596;52.520;13.464;2023-01-26T04:17:29;70.03;;;23.52;;
37753;SDS011;23596;52.520;13.464;2023-01-26T04:20:14;66.88;;;22.67;;
37753;SDS011;23596;52.520;13.464;2023-01-26T04:22:58;64.95;;;22.38;;
37753;SDS011;23596;52.520;13.464;2023-01-26T04:25:23;74.73;;;24.40;;
37753;SDS011;23596;52.520;13.464;2023-01-26T04:27:49;64.47;;;23.40;;
37753;SDS011;23596;52.520;13.464;2023-01-26T04:30:15;64.97;;;24.13;;
37753;SDS011;23596;52.520;13.464;2023-01-26T04:35:07;67.45;;;20.90;;
37753;SDS011;23596;52.520;13.464;2023-01-26T04:37:34;69.38;;;20.85;;
37753;SDS011;23596;52.520;13.464;2023-01-26T04:40:00;68.43;;;21.33;;
37753;SDS011;23596;52.520;13.464;2023-01-26T04:42:26;64.37;;;22.33;;
37753;SDS011;23596;52.520;13.464;2023-01-26T04:44:51;58.30;;;20.53;;
37753;SDS011;23596;52.520;13.464;2023-01-26T04:47:18;61.55;;;20.55;;
37753;SDS011;23596;52.520;13.464;2023-01-26T04:49:45;61.80;;;21.15;;
37753;SDS011;23596;52.520;13.464;2023-01-26T04:52:11;59.78;;;20.02;;
37753;SDS011;23596;52.520;13.464;2023-01-26T04:54:37;63.92;;;23.20;;
37753;SDS011;23596;52.520;13.464;2023-01-26T04:57:03;59.40;;;21.83;;
37753;SDS011;23596;52.520;13.464;2023-01-26T04:59:29;65.33;;;21.53;;
37753;SDS011;23596;52.520;13.464;2023-01-26T05:01:54;66.57;;;22.43;;
37753;SDS011;23596;52.520;13.464;2023-01-26T05:04:20;62.43;;;22.07;;
37753;SDS011;23596;52.520;13.464;2023-01-26T05:06:46;67.50;;;21.17;;
37753;SDS011;23596;52.520;13.464;2023-01-26T05:09:11;60.13;;;21.30;;
37753;SDS011;23596;52.520;13.464;2023-01-26T05:11:37;60.37;;;20.93;;
37753;SDS011;23596;52.520;13.464;2023-01-26T05:14:03;61.03;;;20.53;;
37753;SDS011;23596;52.520;13.464;2023-01-26T05:16:29;64.13;;;20.93;;
37753;SDS011;23596;52.520;13.464;2023-01-26T05:18:54;56.90;;;21.97;;
37753;SDS011;23596;52.520;13.464;2023-01-26T05:21:20;65.30;;;22.37;;
37753;SDS011;23596;52.520;13.464;2023-01-26T05:23:48;58.88;;;21.48;;
37753;SDS011;23596;52.520;13.464;2023-01-26T05:26:14;53.40;;;18.75;;
37753;SDS011;23596;52.520;13.464;2023-01-26T05:28:40;49.60;;;17.92;;
37753;SDS011;23596;52.520;13.464;2023-01-26T05:31:06;49.07;;;18.30;;
37753;SDS011;23596;52.520;13.464;2023-01-26T05:33:32;42.00;;;14.97;;
37753;SDS011;23596;52.520;13.464;2023-01-26T05:36:01;43.77;;;15.83;;
37753;SDS011;23596;52.520;13.464;2023-01-26T05:38:29;43.97;;;17.40;;
37753;SDS011;23596;52.520;13.464;2023-01-26T05:40:55;42.17;;;16.27;;
37753;SDS011;23596;52.520;13.464;2023-01-26T05:43:20;42.37;;;15.97;;
37753;SDS011;23596;52.520;13.464;2023-01-26T05:45:46;54.97;;;19.77;;
37753;SDS011;23596;52.520;13.464;2023-01-26T05:48:12;54.47;;;20.20;;
37753;SDS011;23596;52.520;13.464;2023-01-26T05:50:37;56.73;;;19.10;;
37753;SDS011;23596;52.520;13.464;2023-01-26T05:53:03;59.50;;;20.77;;
37753;SDS011;23596;52.520;13.464;2023-01-26T05:55:28;60.07;;;20.53;;
37753;SDS011;23596;52.520;13.464;2023-01-26T05:57:54;54.13;;;19.03;;
37753;SDS011;23596;52.520;13.464;2023-01-26T06:00:20;58.70;;;21.13;;
37753;SDS011;23596;52.520;13.464;2023-01-26T06:02:46;63.65;;;21.40;;
37753;SDS011;23596;52.520;13.464;2023-01-26T06:05:11;60.20;;;22.37;;
37753;SDS011;23596;52.520;13.464;2023-01-26T06:07:37;72.93;;;21.17;;
37753;SDS011;23596;52.520;13.464;2023-01-26T06:10:03;71.37;;;22.80;;
37753;SDS011;23596;52.520;13.464;2023-01-26T06:12:29;67.65;;;20.98;;
37753;SDS011;23596;52.520;13.464;2023-01-26T06:14:59;60.08;;;20.80;;
37753;SDS011;23596;52.520;13.464;2023-01-26T06:17:28;71.80;;;22.20;;
37753;SDS011;23596;52.520;13.464;2023-01-26T06:19:54;64.33;;;20.30;;
37753;SDS011;23596;52.520;13.464;2023-01-26T06:22:19;55.70;;;20.17;;
37753;SDS011;23596;52.520;13.464;2023-01-26T06:24:45;62.10;;;20.87;;
37753;SDS011;23596;52.520;13.464;2023-01-26T06:27:12;61.80;;;22.05;;
37753;SDS011;23596;52.520;13.464;2023-01-26T06:29:39;66.38;;;21.58;;
37753;SDS011;23596;52.520;13.464;2023-01-26T06:32:06;70.72;;;22.25;;
37753;SDS011;23596;52.520;13.464;2023-01-26T06:34:31;68.70;;;21.23;;
37753;SDS011;23596;52.520;13.464;2023-01-26T06:36:57;56.42;;;19.50;;
37753;SDS011;23596;52.520;13.464;2023-01-26T06:39:23;57.30;;;19.73;;
37753;SDS011;23596;52.520;13.464;2023-01-26T06:41:49;60.83;;;19.03;;
37753;SDS011;23596;52.520;13.464;2023-01-26T06:44:14;55.80;;;18.53;;
37753;SDS011;23596;52.520;13.464;2023-01-26T06:46:40;50.37;;;18.53;;
37753;SDS011;23596;52.520;13.464;2023-01-26T06:49:05;54.77;;;18.53;;
37753;SDS011;23596;52.520;13.464;2023-01-26T06:54:03;54.38;;;18.40;;
37753;SDS011;23596;52.520;13.464;2023-01-26T06:56:28;49.23;;;17.00;;
37753;SDS011;23596;52.520;13.464;2023-01-26T06:58:54;47.93;;;18.23;;
37753;SDS011;23596;52.520;13.464;2023-01-26T07:01:21;67.60;;;17.43;;
37753;SDS011;23596;52.520;13.464;2023-01-26T07:03:49;57.63;;;17.27;;
37753;SDS011;23596;52.520;13.464;2023-01-26T07:06:15;51.40;;;18.08;;
37753;SDS011;23596;52.520;13.464;2023-01-26T07:08:41;64.15;;;18.60;;
37753;SDS011;23596;52.520;13.464;2023-01-26T07:11:07;54.90;;;17.40;;
37753;SDS011;23596;52.520;13.464;2023-01-26T07:13:33;72.82;;;19.75;;
37753;SDS011;23596;52.520;13.464;2023-01-26T07:16:06;57.83;;;18.23;;
37753;SDS011;23596;52.520;13.464;2023-01-26T07:18:36;59.20;;;17.23;;
37753;SDS011;23596;52.520;13.464;2023-01-26T07:21:03;62.17;;;18.13;;
37753;SDS011;23596;52.520;13.464;2023-01-26T07:23:30;52.72;;;18.48;;
37753;SDS011;23596;52.520;13.464;2023-01-26T07:25:55;60.73;;;18.40;;
37753;SDS011;23596;52.520;13.464;2023-01-26T07:28:21;55.63;;;17.13;;
37753;SDS011;23596;52.520;13.464;2023-01-26T07:30:47;60.40;;;17.93;;
37753;SDS011;23596;52.520;13.464;2023-01-26T07:33:13;60.13;;;18.23;;
37753;SDS011;23596;52.520;13.464;2023-01-26T07:35:39;55.30;;;17.45;;
37753;SDS011;23596;52.520;13.464;2023-01-26T07:38:05;54.78;;;16.52;;
37753;SDS011;23596;52.520;13.464;2023-01-26T07:40:31;57.47;;;17.03;;
37753;SDS011;23596;52.520;13.464;2023-01-26T07:42:58;57.30;;;16.38;;
37753;SDS011;23596;52.520;13.464;2023-01-26T07:45:24;47.05;;;16.35;;
37753;SDS011;23596;52.520;13.464;2023-01-26T07:47:52;50.65;;;15.73;;
37753;SDS011;23596;52.520;13.464;2023-01-26T07:50:18;54.58;;;18.00;;
37753;SDS011;23596;52.520;13.464;2023-01-26T07:55:11;49.72;;;15.73;;
37753;SDS011;23596;52.520;13.464;2023-01-26T07:57:37;57.07;;;17.87;;
37753;SDS011;23596;52.520;13.464;2023-01-26T08:00:03;56.93;;;17.43;;
37753;SDS011;23596;52.520;13.464;2023-01-26T08:02:28;46.83;;;15.95;;
37753;SDS011;23596;52.520;13.464;2023-01-26T08:04:54;45.47;;;15.07;;
37753;SDS011;23596;52.520;13.464;2023-01-26T08:07:20;52.63;;;15.90;;
37753;SDS011;23596;52.520;13.464;2023-01-26T08:09:45;46.77;;;16.17;;
37753;SDS011;23596;52.520;13.464;2023-01-26T08:12:11;46.67;;;16.77;;
37753;SDS011;23596;52.520;13.464;2023-01-26T08:14:36;52.13;;;16.47;;
37753;SDS011;23596;52.520;13.464;2023-01-26T08:17:02;50.40;;;16.30;;
37753;SDS011;23596;52.520;13.464;2023-01-26T08:19:27;53.10;;;17.73;;
37753;SDS011;23596;52.520;13.464;2023-01-26T08:21:53;40.07;;;15.60;;
37753;SDS011;23596;52.520;13.464;2023-01-26T08:24:19;43.73;;;14.93;;
37753;SDS011;23596;52.520;13.464;2023-01-26T08:26:44;49.77;;;15.37;;
37753;SDS011;23596;52.520;13.464;2023-01-26T08:29:10;41.83;;;13.90;;
37753;SDS011;23596;52.520;13.464;2023-01-26T08:31:36;40.60;;;14.87;;
37753;SDS011;23596;52.520;13.464;2023-01-26T08:34:02;45.90;;;15.25;;
37753;SDS011;23596;52.520;13.464;2023-01-26T08:36:28;48.15;;;16.00;;
37753;SDS011;23596;52.520;13.464;2023-01-26T08:38:53;40.47;;;15.30;;
37753;SDS011;23596;52.520;13.464;2023-01-26T08:41:19;43.50;;;15.73;;
37753;SDS011;23596;52.520;13.464;2023-01-26T08:43:45;43.90;;;15.97;;
37753;SDS011;23596;52.520;13.464;2023-01-26T08:46:11;37.45;;;14.75;;
37753;SDS011;23596;52.520;13.464;2023-01-26T08:48:36;42.83;;;15.63;;
37753;SDS011;23596;52.520;13.464;2023-01-26T08:51:03;45.47;;;15.77;;
37753;SDS011;23596;52.520;13.464;2023-01-26T08:53:30;41.40;;;14.52;;
37753;SDS011;23596;52.520;13.464;2023-01-26T08:55:59;42.20;;;15.98;;
37753;SDS011;23596;52.520;13.464;2023-01-26T08:58:26;42.17;;;14.60;;
37753;SDS011;23596;52.520;13.464;2023-01-26T09:03:18;35.13;;;13.57;;
37753;SDS011;23596;52.520;13.464;2023-01-26T09:05:44;47.10;;;16.13;;
37753;SDS011;23596;52.520;13.464;2023-01-26T09:08:09;38.93;;;14.30;;
37753;SDS011;23596;52.520;13.464;2023-01-26T09:10:38;38.30;;;15.10;;
37753;SDS011;23596;52.520;13.464;2023-01-26T09:13:04;43.20;;;15.02;;
37753;SDS011;23596;52.520;13.464;2023-01-26T09:15:30;42.70;;;13.93;;
37753;SDS011;23596;52.520;13.464;2023-01-26T09:17:55;42.37;;;14.93;;
37753;SDS011;23596;52.520;13.464;2023-01-26T09:20:21;44.33;;;17.00;;
37753;SDS011;23596;52.520;13.464;2023-01-26T09:22:47;51.73;;;17.57;;
37753;SDS011;23596;52.520;13.464;2023-01-26T09:25:13;36.30;;;14.77;;
37753;SDS011;23596;52.520;13.464;2023-01-26T09:27:39;46.67;;;16.63;;
37753;SDS011;23596;52.520;13.464;2023-01-26T09:30:05;45.50;;;16.92;;
37753;SDS011;23596;52.520;13.464;2023-01-26T09:32:32;43.72;;;15.93;;
37753;SDS011;23596;52.520;13.464;2023-01-26T09:34:57;42.47;;;15.50;;
37753;SDS011;23596;52.520;13.464;2023-01-26T09:37:23;40.17;;;14.30;;
37753;SDS011;23596;52.520;13.464;2023-01-26T09:39:49;34.90;;;15.20;;
37753;SDS011;23596;52.520;13.464;2023-01-26T09:44:51;40.42;;;16.52;;
37753;SDS011;23596;52.520;13.464;2023-01-26T09:47:24;38.92;;;14.65;;
37753;SDS011;23596;52.520;13.464;2023-01-26T09:49:55;36.65;;;15.02;;
37753;SDS011;23596;52.520;13.464;2023-01-26T09:52:27;32.63;;;13.60;;
37753;SDS011;23596;52.520;13.464;2023-01-26T09:54:58;35.72;;;13.77;;
37753;SDS011;23596;52.520;13.464;2023-01-26T09:57:35;33.20;;;14.52;;
37753;SDS011;23596;52.520;13.464;2023-01-26T10:00:38;33.28;;;12.55;;
37753;SDS011;23596;52.520;13.464;2023-01-26T10:03:32;34.63;;;13.63;;
37753;SDS011;23596;52.520;13.464;2023-01-26T10:06:22;37.67;;;14.20;;
37753;SDS011;23596;52.520;13.464;2023-01-26T10:08:50;37.38;;;14.57;;
37753;SDS011;23596;52.520;13.464;2023-01-26T10:11:19;36.90;;;14.65;;
37753;SDS011;23596;52.520;13.464;2023-01-26T10:13:53;43.35;;;16.45;;
37753;SDS011;23596;52.520;13.464;2023-01-26T10:16:23;36.03;;;14.27;;
37753;SDS011;23596;52.520;13.464;2023-01-26T10:21:31;36.40;;;14.48;;
37753;SDS011;23596;52.520;13.464;2023-01-26T10:23:59;43.90;;;15.43;;
37753;SDS011;23596;52.520;13.464;2023-01-26T10:26:29;41.75;;;15.90;;
37753;SDS011;23596;52.520;13.464;2023-01-26T10:28:56;44.38;;;15.57;;
37753;SDS011;23596;52.520;13.464;2023-01-26T10:31:25;36.95;;;15.32;;
37753;SDS011;23596;52.520;13.464;2023-01-26T10:33:56;37.28;;;14.45;;
37753;SDS011;23596;52.520;13.464;2023-01-26T10:36:30;44.50;;;16.15;;
37753;SDS011;23596;52.520;13.464;2023-01-26T10:39:04;36.13;;;14.50;;
37753;SDS011;23596;52.520;13.464;2023-01-26T10:41:31;40.50;;;15.68;;
37753;SDS011;23596;52.520;13.464;2023-01-26T10:44:00;38.03;;;14.63;;
37753;SDS011;23596;52.520;13.464;2023-01-26T10:46:45;44.50;;;15.00;;
37753;SDS011;23596;52.520;13.464;2023-01-26T10:49:25;37.78;;;14.13;;
37753;SDS011;23596;52.520;13.464;2023-01-26T10:54:40;42.25;;;15.88;;
37753;SDS011;23596;52.520;13.464;2023-01-26T10:57:23;37.28;;;13.98;;
37753;SDS011;23596;52.520;13.464;2023-01-26T10:59:57;35.70;;;14.82;;
37753;SDS011;23596;52.520;13.464;2023-01-26T11:12:46;39.90;;;13.25;;
37753;SDS011;23596;52.520;13.464;2023-01-26T11:15:16;42.38;;;15.63;;
37753;SDS011;23596;52.520;13.464;2023-01-26T11:17:51;36.45;;;13.73;;
37753;SDS011;23596;52.520;13.464;2023-01-26T11:34:20;47.00;;;15.68;;
37753;SDS011;23596;52.520;13.464;2023-01-26T11:59:39;34.97;;;14.77;;
37753;SDS011;23596;52.520;13.464;2023-01-26T12:05:00;37.67;;;13.52;;
37753;SDS011;23596;52.520;13.464;2023-01-26T12:07:45;31.15;;;13.38;;
37753;SDS011;23596;52.520;13.464;2023-01-26T12:10:30;36.55;;;13.63;;
37753;SDS011;23596;52.520;13.464;2023-01-26T12:15:41;26.25;;;10.60;;
37753;SDS011;23596;52.520;13.464;2023-01-26T12:20:59;27.40;;;11.63;;
37753;SDS011;23596;52.520;13.464;2023-01-26T12:26:19;28.90;;;12.02;;
37753;SDS011;23596;52.520;13.464;2023-01-26T12:34:34;26.05;;;11.45;;
37753;SDS011;23596;52.520;13.464;2023-01-26T12:40:15;23.00;;;9.88;;
37753;SDS011;23596;52.520;13.464;2023-01-26T12:45:28;20.73;;;9.35;;
37753;SDS011;23596;52.520;13.464;2023-01-26T12:56:15;32.13;;;14.38;;
37753;SDS011;23596;52.520;13.464;2023-01-26T12:58:54;27.15;;;12.10;;
37753;SDS011;23596;52.520;13.464;2023-01-26T13:01:21;25.67;;;11.93;;
37753;SDS011;23596;52.520;13.464;2023-01-26T13:03:57;30.60;;;12.57;;
37753;SDS011;23596;52.520;13.464;2023-01-26T13:06:28;38.08;;;14.18;;
37753;SDS011;23596;52.520;13.464;2023-01-26T13:11:43;32.40;;;13.43;;
37753;SDS011;23596;52.520;13.464;2023-01-26T13:16:55;28.70;;;13.32;;
37753;SDS011;23596;52.520;13.464;2023-01-26T13:24:56;28.70;;;12.98;;
37753;SDS011;23596;52.520;13.464;2023-01-26T13:29:55;26.88;;;11.60;;
37753;SDS011;23596;52.520;13.464;2023-01-26T13:34:51;26.40;;;10.67;;
37753;SDS011;23596;52.520;13.464;2023-01-26T13:39:54;26.27;;;10.77;;
37753;SDS011;23596;52.520;13.464;2023-01-26T13:42:31;26.35;;;11.18;;
37753;SDS011;23596;52.520;13.464;2023-01-26T13:45:05;25.05;;;10.63;;
37753;SDS011;23596;52.520;13.464;2023-01-26T13:47:52;28.98;;;10.75;;
37753;SDS011;23596;52.520;13.464;2023-01-26T13:52:52;23.33;;;11.15;;
37753;SDS011;23596;52.520;13.464;2023-01-26T13:55:22;28.30;;;12.17;;
37753;SDS011;23596;52.520;13.464;2023-01-26T13:58:10;26.48;;;11.13;;
37753;SDS011;23596;52.520;13.464;2023-01-26T14:00:36;26.35;;;12.57;;
37753;SDS011;23596;52.520;13.464;2023-01-26T14:03:02;28.23;;;13.10;;
37753;SDS011;23596;52.520;13.464;2023-01-26T14:05:28;35.43;;;14.03;;
37753;SDS011;23596;52.520;13.464;2023-01-26T14:07:55;35.38;;;13.48;;
37753;SDS011;23596;52.520;13.464;2023-01-26T14:10:21;37.58;;;14.40;;
37753;SDS011;23596;52.520;13.464;2023-01-26T14:12:48;38.40;;;15.13;;
37753;SDS011;23596;52.520;13.464;2023-01-26T14:15:21;32.13;;;15.30;;
37753;SDS011;23596;52.520;13.464;2023-01-26T14:17:49;35.80;;;14.70;;
37753;SDS011;23596;52.520;13.464;2023-01-26T14:20:25;30.35;;;13.63;;
37753;SDS011;23596;52.520;13.464;2023-01-26T14:25:34;28.73;;;13.68;;
37753;SDS011;23596;52.520;13.464;2023-01-26T14:28:01;29.40;;;13.23;;
37753;SDS011;23596;52.520;13.464;2023-01-26T14:30:30;34.88;;;14.73;;
37753;SDS011;23596;52.520;13.464;2023-01-26T14:33:16;40.05;;;15.52;;
37753;SDS011;23596;52.520;13.464;2023-01-26T14:35:42;36.03;;;15.23;;
37753;SDS011;23596;52.520;13.464;2023-01-26T14:38:20;39.40;;;14.38;;
37753;SDS011;23596;52.520;13.464;2023-01-26T14:40:49;37.13;;;14.93;;
37753;SDS011;23596;52.520;13.464;2023-01-26T14:43:16;41.35;;;16.77;;
37753;SDS011;23596;52.520;13.464;2023-01-26T14:46:04;40.53;;;15.23;;
37753;SDS011;23596;52.520;13.464;2023-01-26T14:48:33;40.88;;;15.38;;
37753;SDS011;23596;52.520;13.464;2023-01-26T14:51:18;35.63;;;15.35;;
37753;SDS011;23596;52.520;13.464;2023-01-26T14:53:50;40.50;;;16.13;;
37753;SDS011;23596;52.520;13.464;2023-01-26T14:56:20;37.17;;;15.68;;
37753;SDS011;23596;52.520;13.464;2023-01-26T14:58:52;40.75;;;15.73;;
37753;SDS011;23596;52.520;13.464;2023-01-26T15:01:19;42.28;;;15.63;;
37753;SDS011;23596;52.520;13.464;2023-01-26T15:03:47;34.47;;;14.40;;
37753;SDS011;23596;52.520;13.464;2023-01-26T15:08:55;46.42;;;16.95;;
37753;SDS011;23596;52.520;13.464;2023-01-26T15:11:25;37.13;;;16.02;;
37753;SDS011;23596;52.520;13.464;2023-01-26T15:16:55;39.53;;;16.33;;
37753;SDS011;23596;52.520;13.464;2023-01-26T15:19:22;52.57;;;18.17;;
37753;SDS011;23596;52.520;13.464;2023-01-26T15:21:48;47.55;;;18.10;;
37753;SDS011;23596;52.520;13.464;2023-01-26T15:24:14;36.30;;;16.40;;
37753;SDS011;23596;52.520;13.464;2023-01-26T15:26:40;58.27;;;19.20;;
37753;SDS011;23596;52.520;13.464;2023-01-26T15:31:50;50.33;;;19.50;;
37753;SDS011;23596;52.520;13.464;2023-01-26T15:37:01;57.78;;;21.20;;
37753;SDS011;23596;52.520;13.464;2023-01-26T15:39:28;76.85;;;29.80;;
37753;SDS011;23596;52.520;13.464;2023-01-26T15:44:35;57.58;;;22.25;;
37753;SDS011;23596;52.520;13.464;2023-01-26T15:47:01;63.90;;;25.37;;
37753;SDS011;23596;52.520;13.464;2023-01-26T15:49:26;63.17;;;24.77;;
37753;SDS011;23596;52.520;13.464;2023-01-26T15:51:52;60.27;;;22.77;;
37753;SDS011;23596;52.520;13.464;2023-01-26T15:54:18;52.10;;;20.87;;
37753;SDS011;23596;52.520;13.464;2023-01-26T15:56:44;57.38;;;21.85;;
37753;SDS011;23596;52.520;13.464;2023-01-26T15:59:09;62.50;;;22.27;;
37753;SDS011;23596;52.520;13.464;2023-01-26T16:01:35;62.80;;;21.88;;
37753;SDS011;23596;52.520;13.464;2023-01-26T16:04:01;61.67;;;21.83;;
37753;SDS011;23596;52.520;13.464;2023-01-26T16:06:30;62.77;;;22.53;;
37753;SDS011;23596;52.520;13.464;2023-01-26T16:08:56;59.25;;;21.63;;
37753;SDS011;23596;52.520;13.464;2023-01-26T16:11:30;55.15;;;21.63;;
37753;SDS011;23596;52.520;13.464;2023-01-26T16:13:59;49.03;;;20.98;;
37753;SDS011;23596;52.520;13.464;2023-01-26T16:16:26;55.35;;;21.92;;
37753;SDS011;23596;52.520;13.464;2023-01-26T16:18:53;50.78;;;19.40;;
37753;SDS011;23596;52.520;13.464;2023-01-26T16:21:20;57.30;;;21.70;;
37753;SDS011;23596;52.520;13.464;2023-01-26T16:23:53;53.75;;;19.90;;
37753;SDS011;23596;52.520;13.464;2023-01-26T16:26:18;49.83;;;19.95;;
37753;SDS011;23596;52.520;13.464;2023-01-26T16:28:44;54.53;;;20.37;;
37753;SDS011;23596;52.520;13.464;2023-01-26T16:31:14;58.40;;;22.17;;
37753;SDS011;23596;52.520;13.464;2023-01-26T16:33:42;56.85;;;19.30;;
37753;SDS011;23596;52.520;13.464;2023-01-26T16:36:09;50.45;;;19.80;;
37753;SDS011;23596;52.520;13.464;2023-01-26T16:38:35;53.83;;;19.52;;
37753;SDS011;23596;52.520;13.464;2023-01-26T16:41:01;48.67;;;17.97;;